KEUG

Mahlon Sweet Field Airport

Eugene, Oregon, USA
METAR KEUG 150254Z 24011KT 8SM BKN080 26/17 A2981 RMK AO2 SLP093 FU BKN080 T02560167 53004
Observed Flight Rules
Aug-15 @ 02:54 UTC (40 minutes ago) Visual Flight Rules
Wind Visibility Clouds
240° at 11 knots 8 miles
  • Broken at 8,000' AGL
Temperatures Readings
Current 26°C / 79°F
Dewpoint 17°C / 63°F
Humidity 58%
Altimeter 29.81" Hg
Pressure 1009.3 hPa
Elevation 114
METAR KEUG 150254Z 24011KT 8SM BKN080 26/17 A2981 RMK AO2 SLP093 FU BKN080 T02560167 53004
Observed Flight Rules
Aug-15 @ 02:54 UTC
(40 minutes ago)
VFR
Wind Visibility
240° at 11 knots 8 miles
Clouds
  • Broken at 8,000' AGL
Temperature Dewpoint
26°C / 79°F 17°C / 63°F
Humidity Altimeter Pressure
58% 29.81" Hg 1009.3 hPa